sensor_id;sensor_type;location;lat;lon;timestamp;P1;durP1;ratioP1;P2;durP2;ratioP2
46721;SDS011;32455;43.430;23.136;2023-06-22T00:01:58;8.25;;;6.18;;
46721;SDS011;32455;43.430;23.136;2023-06-22T00:04:44;6.93;;;6.22;;
46721;SDS011;32455;43.430;23.136;2023-06-22T00:07:30;7.25;;;6.13;;
46721;SDS011;32455;43.430;23.136;2023-06-22T00:10:14;7.97;;;6.50;;
46721;SDS011;32455;43.430;23.136;2023-06-22T00:13:00;7.32;;;6.63;;
46721;SDS011;32455;43.430;23.136;2023-06-22T00:15:45;8.18;;;7.13;;
46721;SDS011;32455;43.430;23.136;2023-06-22T00:18:31;9.35;;;6.25;;
46721;SDS011;32455;43.430;23.136;2023-06-22T00:21:17;6.88;;;6.28;;
46721;SDS011;32455;43.430;23.136;2023-06-22T00:24:05;7.63;;;6.65;;
46721;SDS011;32455;43.430;23.136;2023-06-22T00:26:50;9.18;;;7.10;;
46721;SDS011;32455;43.430;23.136;2023-06-22T00:29:36;7.38;;;6.68;;
46721;SDS011;32455;43.430;23.136;2023-06-22T00:32:21;7.82;;;7.10;;
46721;SDS011;32455;43.430;23.136;2023-06-22T00:35:07;9.77;;;7.03;;
46721;SDS011;32455;43.430;23.136;2023-06-22T00:37:54;8.30;;;7.50;;
46721;SDS011;32455;43.430;23.136;2023-06-22T00:40:45;9.77;;;7.43;;
46721;SDS011;32455;43.430;23.136;2023-06-22T00:43:30;8.50;;;7.20;;
46721;SDS011;32455;43.430;23.136;2023-06-22T00:46:15;9.68;;;7.95;;
46721;SDS011;32455;43.430;23.136;2023-06-22T00:49:00;8.77;;;7.57;;
46721;SDS011;32455;43.430;23.136;2023-06-22T00:51:45;8.13;;;6.70;;
46721;SDS011;32455;43.430;23.136;2023-06-22T00:54:32;7.75;;;7.03;;
46721;SDS011;32455;43.430;23.136;2023-06-22T00:57:19;8.00;;;7.20;;
46721;SDS011;32455;43.430;23.136;2023-06-22T01:00:06;7.88;;;7.13;;
46721;SDS011;32455;43.430;23.136;2023-06-22T01:02:53;7.63;;;6.65;;
46721;SDS011;32455;43.430;23.136;2023-06-22T01:05:39;7.95;;;7.15;;
46721;SDS011;32455;43.430;23.136;2023-06-22T01:08:46;7.72;;;7.03;;
46721;SDS011;32455;43.430;23.136;2023-06-22T01:11:37;9.73;;;7.95;;
46721;SDS011;32455;43.430;23.136;2023-06-22T01:14:35;10.35;;;7.53;;
46721;SDS011;32455;43.430;23.136;2023-06-22T01:17:37;9.63;;;8.23;;
46721;SDS011;32455;43.430;23.136;2023-06-22T01:20:26;7.43;;;6.72;;
46721;SDS011;32455;43.430;23.136;2023-06-22T01:29:13;9.98;;;7.28;;
46721;SDS011;32455;43.430;23.136;2023-06-22T01:32:01;8.82;;;7.35;;
46721;SDS011;32455;43.430;23.136;2023-06-22T01:34:48;7.70;;;6.63;;
46721;SDS011;32455;43.430;23.136;2023-06-22T01:37:35;9.57;;;8.68;;
46721;SDS011;32455;43.430;23.136;2023-06-22T01:40:21;7.80;;;7.10;;
46721;SDS011;32455;43.430;23.136;2023-06-22T01:43:07;8.30;;;7.45;;
46721;SDS011;32455;43.430;23.136;2023-06-22T01:45:53;8.98;;;7.47;;
46721;SDS011;32455;43.430;23.136;2023-06-22T01:48:39;7.43;;;6.72;;
46721;SDS011;32455;43.430;23.136;2023-06-22T01:51:24;9.98;;;7.65;;
46721;SDS011;32455;43.430;23.136;2023-06-22T01:54:10;9.15;;;6.82;;
46721;SDS011;32455;43.430;23.136;2023-06-22T01:56:55;8.73;;;7.45;;
46721;SDS011;32455;43.430;23.136;2023-06-22T01:59:47;9.77;;;7.60;;
46721;SDS011;32455;43.430;23.136;2023-06-22T02:02:52;12.70;;;9.27;;
46721;SDS011;32455;43.430;23.136;2023-06-22T02:05:51;17.50;;;13.95;;
46721;SDS011;32455;43.430;23.136;2023-06-22T02:08:41;15.27;;;10.90;;
46721;SDS011;32455;43.430;23.136;2023-06-22T02:11:33;10.60;;;8.60;;
46721;SDS011;32455;43.430;23.136;2023-06-22T02:14:21;8.07;;;7.28;;
46721;SDS011;32455;43.430;23.136;2023-06-22T02:17:08;8.65;;;7.75;;
46721;SDS011;32455;43.430;23.136;2023-06-22T02:19:54;11.02;;;9.13;;
46721;SDS011;32455;43.430;23.136;2023-06-22T02:22:39;11.20;;;8.55;;
46721;SDS011;32455;43.430;23.136;2023-06-22T02:25:24;11.55;;;9.43;;
46721;SDS011;32455;43.430;23.136;2023-06-22T02:28:10;9.60;;;7.97;;
46721;SDS011;32455;43.430;23.136;2023-06-22T02:30:55;9.10;;;7.78;;
46721;SDS011;32455;43.430;23.136;2023-06-22T02:33:41;8.68;;;7.88;;
46721;SDS011;32455;43.430;23.136;2023-06-22T02:36:26;8.70;;;7.90;;
46721;SDS011;32455;43.430;23.136;2023-06-22T21:17:47;13.68;;;9.18;;
46721;SDS011;32455;43.430;23.136;2023-06-22T21:20:36;12.88;;;9.15;;
46721;SDS011;32455;43.430;23.136;2023-06-22T21:23:21;10.20;;;8.30;;
46721;SDS011;32455;43.430;23.136;2023-06-22T21:26:07;9.63;;;8.40;;
46721;SDS011;32455;43.430;23.136;2023-06-22T21:28:52;10.77;;;8.25;;
46721;SDS011;32455;43.430;23.136;2023-06-22T21:31:38;12.05;;;7.93;;
46721;SDS011;32455;43.430;23.136;2023-06-22T21:34:25;10.15;;;8.25;;
46721;SDS011;32455;43.430;23.136;2023-06-22T21:37:10;10.52;;;8.68;;
46721;SDS011;32455;43.430;23.136;2023-06-22T21:39:55;9.10;;;8.15;;
46721;SDS011;32455;43.430;23.136;2023-06-22T21:42:41;14.35;;;8.95;;
46721;SDS011;32455;43.430;23.136;2023-06-22T21:45:26;9.57;;;8.60;;
46721;SDS011;32455;43.430;23.136;2023-06-22T21:48:12;12.60;;;9.02;;
46721;SDS011;32455;43.430;23.136;2023-06-22T21:50:57;9.38;;;8.23;;
46721;SDS011;32455;43.430;23.136;2023-06-22T21:53:42;9.85;;;8.85;;
46721;SDS011;32455;43.430;23.136;2023-06-22T21:56:28;13.02;;;9.68;;
46721;SDS011;32455;43.430;23.136;2023-06-22T21:59:13;11.70;;;9.38;;
46721;SDS011;32455;43.430;23.136;2023-06-22T22:01:58;12.10;;;9.63;;
46721;SDS011;32455;43.430;23.136;2023-06-22T22:04:44;9.48;;;8.15;;
46721;SDS011;32455;43.430;23.136;2023-06-22T22:07:29;10.75;;;9.10;;
46721;SDS011;32455;43.430;23.136;2023-06-22T22:10:17;9.48;;;8.25;;
46721;SDS011;32455;43.430;23.136;2023-06-22T22:13:03;10.50;;;8.10;;
46721;SDS011;32455;43.430;23.136;2023-06-22T22:15:48;13.27;;;7.90;;
46721;SDS011;32455;43.430;23.136;2023-06-22T22:18:32;10.10;;;7.63;;
46721;SDS011;32455;43.430;23.136;2023-06-22T22:21:18;11.85;;;7.70;;
46721;SDS011;32455;43.430;23.136;2023-06-22T22:24:03;9.13;;;8.15;;
46721;SDS011;32455;43.430;23.136;2023-06-22T22:26:48;11.00;;;7.72;;
46721;SDS011;32455;43.430;23.136;2023-06-22T22:29:33;12.40;;;7.75;;
46721;SDS011;32455;43.430;23.136;2023-06-22T22:32:21;9.98;;;7.88;;
46721;SDS011;32455;43.430;23.136;2023-06-22T22:35:06;9.52;;;7.95;;
46721;SDS011;32455;43.430;23.136;2023-06-22T22:37:51;15.18;;;8.32;;
46721;SDS011;32455;43.430;23.136;2023-06-22T22:40:36;11.43;;;8.23;;
46721;SDS011;32455;43.430;23.136;2023-06-22T22:43:22;11.13;;;8.27;;
46721;SDS011;32455;43.430;23.136;2023-06-22T22:46:08;12.57;;;8.77;;
46721;SDS011;32455;43.430;23.136;2023-06-22T22:48:53;11.73;;;8.98;;
46721;SDS011;32455;43.430;23.136;2023-06-22T22:51:38;13.68;;;8.75;;
46721;SDS011;32455;43.430;23.136;2023-06-22T22:54:24;14.23;;;8.65;;
46721;SDS011;32455;43.430;23.136;2023-06-22T22:57:11;12.20;;;8.68;;
46721;SDS011;32455;43.430;23.136;2023-06-22T22:59:57;10.75;;;9.07;;
46721;SDS011;32455;43.430;23.136;2023-06-22T23:02:43;10.55;;;9.48;;
46721;SDS011;32455;43.430;23.136;2023-06-22T23:05:28;10.02;;;8.32;;
46721;SDS011;32455;43.430;23.136;2023-06-22T23:08:13;10.48;;;8.65;;
46721;SDS011;32455;43.430;23.136;2023-06-22T23:10:59;9.10;;;8.13;;
46721;SDS011;32455;43.430;23.136;2023-06-22T23:13:44;14.60;;;9.50;;
46721;SDS011;32455;43.430;23.136;2023-06-22T23:16:30;11.75;;;8.40;;
46721;SDS011;32455;43.430;23.136;2023-06-22T23:19:15;11.82;;;8.60;;
46721;SDS011;32455;43.430;23.136;2023-06-22T23:22:01;12.57;;;9.63;;
46721;SDS011;32455;43.430;23.136;2023-06-22T23:24:47;13.63;;;9.50;;
46721;SDS011;32455;43.430;23.136;2023-06-22T23:27:32;11.20;;;8.07;;
46721;SDS011;32455;43.430;23.136;2023-06-22T23:30:18;9.90;;;8.90;;
46721;SDS011;32455;43.430;23.136;2023-06-22T23:33:04;9.77;;;8.80;;
46721;SDS011;32455;43.430;23.136;2023-06-22T23:35:49;12.80;;;9.57;;
46721;SDS011;32455;43.430;23.136;2023-06-22T23:38:35;14.95;;;8.77;;
46721;SDS011;32455;43.430;23.136;2023-06-22T23:41:20;11.98;;;9.65;;
46721;SDS011;32455;43.430;23.136;2023-06-22T23:44:09;12.15;;;8.73;;
46721;SDS011;32455;43.430;23.136;2023-06-22T23:46:55;10.80;;;8.98;;
46721;SDS011;32455;43.430;23.136;2023-06-22T23:49:42;8.93;;;8.02;;
46721;SDS011;32455;43.430;23.136;2023-06-22T23:52:27;12.13;;;7.53;;
46721;SDS011;32455;43.430;23.136;2023-06-22T23:55:11;8.77;;;7.88;;
46721;SDS011;32455;43.430;23.136;2023-06-22T23:57:56;8.80;;;7.25;;
